PS44 weather

Operations Center Heliport
Bellwood, Pennsylvania, United States

Public forecast

Using degrees Fahrenheit for public forecast. Weather courtesy of forecast.io.

METAR (pilot weather report)

Closest report is Altoona Blair County Airport, 18.9 nm (35.0 km) S. Retrieved 2019/05/23 11:53 UTC (46 minutes ago):

KAOO 231153Z AUTO 00000KT 10SM OVC085 18/12 A3014 RMK AO2 SLP199 T01830122 10183 20150 51004

TAF (pilot weather forecast)

Closest forecast is Altoona Blair County Airport, 18.9 nm (35.0 km) S. Retrieved 2019/05/23 12:00 UTC (39 minutes ago):

TAF KAOO 231157Z 2312/2412 00000KT P6SM OVC090 FM231600 24011G18KT P6SM -SHRA BKN050 FM232100 26013G21KT P6SM VCSH BKN040 BKN250 FM240300 25008G15KT P6SM SCT250